Time;durP1;ratioP1;P1;durP2;ratioP2;P2;SDS_P1;SDS_P2;PMS_P1;PMS_P2;Temp;Humidity;BMP_temperature;BMP_pressure;BME280_temperature;BME280_humidity;BME280_pressure;Samples;Min_cycle;Max_cycle;Signal;HPM_P1;HPM_P2
2023/07/16 00:01:45;;;;;;;;;;;16.90;99.90;;;;;;5039458;28;19924;-84
2023/07/16 00:04:10;;;;;;;;;;;16.90;99.90;;;;;;5053329;28;19931;-84
2023/07/16 00:06:36;;;;;;;;;;;16.90;99.90;;;;;;5031556;28;19924;-85
2023/07/16 00:09:02;;;;;;;;;;;16.90;99.90;;;;;;5058525;28;19924;-85
2023/07/16 00:11:28;;;;;;;;;;;16.90;99.90;;;;;;5050327;28;19928;-84
2023/07/16 00:13:53;;;;;;;;;;;16.90;99.90;;;;;;5060604;28;19931;-84
2023/07/16 00:16:19;;;;;;;;;;;16.90;99.90;;;;;;5064126;28;19928;-86
2023/07/16 00:18:44;;;;;;;;;;;16.90;99.90;;;;;;5041901;28;19947;-83
2023/07/16 00:21:10;;;;;;;;;;;16.90;99.90;;;;;;5074161;28;19994;-87
2023/07/16 00:23:36;;;;;;;;;;;16.90;99.90;;;;;;5058292;28;19999;-85
2023/07/16 00:26:02;;;;;;;;;;;16.90;99.90;;;;;;5054062;28;19965;-84
2023/07/16 00:28:28;;;;;;;;;;;16.80;99.90;;;;;;5049971;28;19931;-83
2023/07/16 00:30:53;;;;;;;;;;;16.80;99.90;;;;;;5057554;28;19928;-84
2023/07/16 00:33:19;;;;;;;;;;;16.70;99.90;;;;;;5023453;28;19935;-84
2023/07/16 00:35:48;;;;;;;;;;;16.70;99.90;;;;;;5056018;28;20273;-86
2023/07/16 00:38:14;;;;;;;;;;;16.70;99.90;;;;;;5054027;28;19924;-84
2023/07/16 00:40:40;;;;;;;;;;;16.70;99.90;;;;;;5041563;28;19939;-84
2023/07/16 00:43:05;;;;;;;;;;;16.60;99.90;;;;;;5060887;28;19931;-84
2023/07/16 00:45:31;;;;;;;;;;;16.60;99.90;;;;;;5054500;28;19996;-86
2023/07/16 00:47:57;;;;;;;;;;;16.60;99.90;;;;;;5038187;28;19972;-86
2023/07/16 00:50:22;;;;;;;;;;;16.60;99.90;;;;;;5063517;28;20370;-83
2023/07/16 00:52:48;;;;;;;;;;;16.50;99.90;;;;;;5053224;28;19929;-84
2023/07/16 00:55:14;;;;;;;;;;;16.60;99.90;;;;;;5054459;28;20019;-87
2023/07/16 00:57:39;;;;;;;;;;;16.50;99.90;;;;;;5049870;28;19928;-83
2023/07/16 01:00:05;;;;;;;;;;;16.60;99.90;;;;;;5058573;28;19940;-86
2023/07/16 01:02:31;;;;;;;;;;;16.60;99.90;;;;;;5035397;28;19924;-84
2023/07/16 01:04:57;;;;;;;;;;;16.60;99.90;;;;;;5053232;28;19928;-83
2023/07/16 01:07:24;;;;;;;;;;;16.60;99.90;;;;;;5057086;28;19924;-83
2023/07/16 01:09:51;;;;;;;;;;;16.60;99.90;;;;;;5052059;28;20400;-88
2023/07/16 01:12:17;;;;;;;;;;;16.60;99.90;;;;;;5041430;28;20398;-83
2023/07/16 01:14:43;;;;;;;;;;;16.60;99.90;;;;;;5061281;28;20037;-85
2023/07/16 01:17:08;;;;;;;;;;;16.60;99.90;;;;;;5053082;28;19963;-83
2023/07/16 01:19:34;;;;;;;;;;;16.60;99.90;;;;;;5050249;28;19931;-85
2023/07/16 01:22:00;;;;;;;;;;;16.60;99.90;;;;;;5050907;28;20019;-85
2023/07/16 01:24:32;;;;;;;;;;;16.60;99.90;;;;;;5039399;28;19978;-85
2023/07/16 01:27:03;;;;;;;;;;;16.60;99.90;;;;;;5038913;28;19932;-85
2023/07/16 01:29:29;;;;;;;;;;;16.60;99.90;;;;;;5053197;28;19982;-86
2023/07/16 01:31:56;;;;;;;;;;;16.60;99.90;;;;;;5046251;28;19929;-84
2023/07/16 01:34:22;;;;;;;;;;;16.60;99.90;;;;;;5034395;28;19929;-86
2023/07/16 01:36:49;;;;;;;;;;;16.70;99.90;;;;;;5056882;28;20011;-84
2023/07/16 01:39:15;;;;;;;;;;;16.70;99.90;;;;;;5049452;28;19932;-84
2023/07/16 01:41:40;;;;;;;;;;;16.70;99.90;;;;;;5032632;28;19929;-84
2023/07/16 01:44:06;;;;;;;;;;;16.70;99.90;;;;;;5052712;28;19960;-83
2023/07/16 01:46:31;;;;;;;;;;;16.60;99.90;;;;;;5050388;28;20002;-86
2023/07/16 01:48:57;;;;;;;;;;;16.70;99.90;;;;;;5048322;28;20028;-87
2023/07/16 01:51:22;;;;;;;;;;;16.70;99.90;;;;;;5046292;28;19970;-86
2023/07/16 01:53:48;;;;;;;;;;;16.70;99.90;;;;;;5048872;28;20401;-84
2023/07/16 01:56:14;;;;;;;;;;;16.70;99.90;;;;;;5032750;28;19925;-85
2023/07/16 01:58:39;;;;;;;;;;;16.70;99.90;;;;;;5032999;28;19933;-85
2023/07/16 02:01:05;;;;;;;;;;;16.80;99.90;;;;;;5040381;28;19935;-85
2023/07/16 02:03:30;;;;;;;;;;;16.80;99.90;;;;;;5055796;28;19929;-85
2023/07/16 02:05:56;;;;;;;;;;;16.80;99.90;;;;;;5050693;28;20028;-84
2023/07/16 02:08:22;;;;;;;;;;;16.80;99.90;;;;;;5032854;28;20381;-84
2023/07/16 02:10:48;;;;;;;;;;;16.80;99.90;;;;;;5036845;28;19931;-83
2023/07/16 02:13:13;;;;;;;;;;;16.80;99.90;;;;;;5041053;28;19931;-84
2023/07/16 02:15:39;;;;;;;;;;;16.80;99.90;;;;;;5056088;28;19932;-83
2023/07/16 02:18:04;;;;;;;;;;;16.70;99.90;;;;;;5037912;28;19929;-83
2023/07/16 02:20:30;;;;;;;;;;;16.70;99.90;;;;;;5050641;28;19990;-83
2023/07/16 02:22:56;;;;;;;;;;;16.70;99.90;;;;;;5049090;28;19929;-84
2023/07/16 02:25:21;;;;;;;;;;;16.70;99.90;;;;;;5051157;28;19924;-85
2023/07/16 02:27:47;;;;;;;;;;;16.70;99.90;;;;;;5039564;28;19928;-85
2023/07/16 02:30:13;;;;;;;;;;;16.70;99.90;;;;;;5033395;28;20051;-84
2023/07/16 02:32:39;;;;;;;;;;;16.60;99.90;;;;;;5051724;28;19925;-85
2023/07/16 02:35:04;;;;;;;;;;;16.60;99.90;;;;;;5037569;28;19925;-85
2023/07/16 02:37:30;;;;;;;;;;;16.60;99.90;;;;;;5058822;28;19962;-83
2023/07/16 02:39:55;;;;;;;;;;;16.60;99.90;;;;;;5038930;28;20379;-82
2023/07/16 02:42:21;;;;;;;;;;;16.60;99.90;;;;;;5038452;28;20446;-82
2023/07/16 02:44:47;;;;;;;;;;;16.50;99.90;;;;;;5052846;28;19971;-86
2023/07/16 02:47:12;;;;;;;;;;;16.50;99.90;;;;;;5045160;28;19932;-85
2023/07/16 02:49:38;;;;;;;;;;;16.50;99.90;;;;;;5051351;28;19924;-84
2023/07/16 02:52:04;;;;;;;;;;;16.50;99.90;;;;;;5033779;28;20008;-83
2023/07/16 02:54:30;;;;;;;;;;;16.50;99.90;;;;;;5051420;28;19932;-86
2023/07/16 02:56:55;;;;;;;;;;;16.40;99.90;;;;;;5038843;28;19928;-84
2023/07/16 02:59:21;;;;;;;;;;;16.50;99.90;;;;;;5059998;28;19931;-83
2023/07/16 03:01:46;;;;;;;;;;;16.50;99.90;;;;;;5050175;28;20390;-82
2023/07/16 03:04:12;;;;;;;;;;;16.50;99.90;;;;;;5045644;28;19931;-84
2023/07/16 03:06:38;;;;;;;;;;;16.50;99.90;;;;;;5024468;28;19925;-82
2023/07/16 03:09:03;;;;;;;;;;;16.40;99.90;;;;;;5021030;28;20260;-86
2023/07/16 03:11:29;;;;;;;;;;;16.30;99.90;;;;;;5020764;28;19929;-86
2023/07/16 03:13:54;;;;;;;;;;;16.30;99.90;;;;;;5044869;28;19925;-85
2023/07/16 03:16:20;;;;;;;;;;;16.30;99.90;;;;;;5066282;28;19925;-84
2023/07/16 03:18:46;;;;;;;;;;;16.30;99.90;;;;;;5060799;28;19925;-82
2023/07/16 03:21:12;;;;;;;;;;;16.30;99.90;;;;;;5066074;28;20006;-86
2023/07/16 03:23:37;;;;;;;;;;;16.30;99.90;;;;;;5054785;28;19932;-84
2023/07/16 03:26:03;;;;;;;;;;;16.30;99.90;;;;;;5067664;28;19932;-83
2023/07/16 03:28:28;;;;;;;;;;;16.30;99.90;;;;;;5054852;28;19968;-85
2023/07/16 03:30:54;;;;;;;;;;;16.30;99.90;;;;;;5055127;28;19959;-84
2023/07/16 03:33:20;;;;;;;;;;;16.30;99.90;;;;;;5054377;28;19933;-85
2023/07/16 03:35:46;;;;;;;;;;;16.20;99.90;;;;;;5038569;28;19925;-84
2023/07/16 03:38:12;;;;;;;;;;;16.20;99.90;;;;;;5037448;28;19932;-84
2023/07/16 03:40:37;;;;;;;;;;;16.20;99.90;;;;;;5056359;28;19968;-85
2023/07/16 03:43:03;;;;;;;;;;;16.20;99.90;;;;;;5056307;28;19976;-84
2023/07/16 03:45:29;;;;;;;;;;;16.20;99.90;;;;;;5045649;28;19929;-84
2023/07/16 03:47:54;;;;;;;;;;;16.20;99.90;;;;;;5065001;28;19925;-85
2023/07/16 03:50:20;;;;;;;;;;;16.20;99.90;;;;;;5054858;28;19929;-83
2023/07/16 03:52:45;;;;;;;;;;;16.30;99.90;;;;;;5040636;28;19925;-85
2023/07/16 03:55:11;;;;;;;;;;;16.20;99.90;;;;;;5053970;28;19935;-86
2023/07/16 03:57:36;;;;;;;;;;;16.20;99.90;;;;;;5029777;28;19935;-86
2023/07/16 04:00:04;;;;;;;;;;;16.20;99.90;;;;;;5067527;28;20405;-83
2023/07/16 04:02:29;;;;;;;;;;;16.20;99.90;;;;;;5055910;28;19925;-82
2023/07/16 04:04:55;;;;;;;;;;;16.20;99.90;;;;;;5036366;28;19925;-86
2023/07/16 04:07:20;;;;;;;;;;;16.20;99.90;;;;;;5029419;28;19924;-83
2023/07/16 04:09:46;;;;;;;;;;;16.20;99.90;;;;;;5063645;28;19928;-85
2023/07/16 04:12:12;;;;;;;;;;;16.20;99.90;;;;;;5054858;28;20294;-87
2023/07/16 04:14:37;;;;;;;;;;;16.20;99.90;;;;;;5033848;28;19925;-84
2023/07/16 04:17:03;;;;;;;;;;;16.20;99.90;;;;;;5045151;28;20417;-86
2023/07/16 04:19:29;;;;;;;;;;;16.20;99.90;;;;;;5055658;28;20299;-83
2023/07/16 04:21:55;;;;;;;;;;;16.20;99.90;;;;;;5054033;28;19999;-84
2023/07/16 04:24:21;;;;;;;;;;;16.20;99.90;;;;;;5034689;28;20462;-86
2023/07/16 04:26:46;;;;;;;;;;;16.20;99.90;;;;;;5050573;28;19925;-85
2023/07/16 04:29:12;;;;;;;;;;;16.20;99.90;;;;;;5067772;28;19928;-84
2023/07/16 04:31:37;;;;;;;;;;;16.30;99.90;;;;;;5053568;28;19931;-84
2023/07/16 04:34:03;;;;;;;;;;;16.30;99.90;;;;;;5064039;28;19928;-83
2023/07/16 04:36:28;;;;;;;;;;;16.30;99.90;;;;;;5052274;28;19931;-83
2023/07/16 04:38:54;;;;;;;;;;;16.30;99.90;;;;;;5052036;28;20295;-85
2023/07/16 04:41:20;;;;;;;;;;;16.30;99.90;;;;;;5029425;28;19933;-86
2023/07/16 04:43:45;;;;;;;;;;;16.40;99.90;;;;;;5056832;28;20327;-85
2023/07/16 04:46:11;;;;;;;;;;;16.40;99.90;;;;;;5053801;28;19955;-85
2023/07/16 04:48:37;;;;;;;;;;;16.40;99.90;;;;;;5045130;28;19928;-84
2023/07/16 04:51:03;;;;;;;;;;;16.40;99.90;;;;;;5068744;28;19932;-85
2023/07/16 04:53:28;;;;;;;;;;;16.50;99.90;;;;;;5053529;28;19928;-82
2023/07/16 04:55:54;;;;;;;;;;;16.50;99.90;;;;;;5053042;28;19931;-85
2023/07/16 04:58:19;;;;;;;;;;;16.60;99.90;;;;;;5036614;28;19936;-87
2023/07/16 05:00:45;;;;;;;;;;;16.60;99.90;;;;;;5035881;28;19928;-86
2023/07/16 05:03:11;;;;;;;;;;;16.70;99.90;;;;;;5052326;28;19925;-85
2023/07/16 05:05:36;;;;;;;;;;;16.80;99.90;;;;;;5055179;28;19928;-83
2023/07/16 05:08:02;;;;;;;;;;;16.90;99.90;;;;;;5052488;28;19929;-86
2023/07/16 05:10:28;;;;;;;;;;;17.00;99.90;;;;;;5034454;28;20059;-85
2023/07/16 05:12:53;;;;;;;;;;;17.40;99.90;;;;;;5052459;28;19928;-87
2023/07/16 05:15:19;;;;;;;;;;;17.90;99.90;;;;;;5026558;28;20034;-83
2023/07/16 05:17:44;;;;;;;;;;;18.30;99.90;;;;;;5051813;28;20268;-85
2023/07/16 05:20:10;;;;;;;;;;;18.80;99.90;;;;;;5038613;28;19939;-87
2023/07/16 05:22:36;;;;;;;;;;;19.20;99.90;;;;;;5038178;28;19973;-85
2023/07/16 05:25:01;;;;;;;;;;;19.60;99.90;;;;;;5058742;28;19971;-85
2023/07/16 05:27:27;;;;;;;;;;;19.90;99.90;;;;;;5056012;28;19924;-87
2023/07/16 05:29:53;;;;;;;;;;;20.10;99.90;;;;;;5054371;28;20061;-85
2023/07/16 05:32:19;;;;;;;;;;;20.40;99.90;;;;;;5061099;28;20322;-88
2023/07/16 05:34:44;;;;;;;;;;;20.60;99.90;;;;;;5041421;28;20011;-85
2023/07/16 05:37:10;;;;;;;;;;;20.80;99.90;;;;;;5052152;28;19928;-87
2023/07/16 05:39:35;;;;;;;;;;;20.90;99.90;;;;;;5047225;28;19967;-85
2023/07/16 05:42:02;;;;;;;;;;;21.10;99.90;;;;;;5051780;28;19929;-87
2023/07/16 05:44:28;;;;;;;;;;;21.30;99.90;;;;;;5034205;28;19932;-85
2023/07/16 05:46:53;;;;;;;;;;;21.40;99.90;;;;;;5062944;28;19925;-83
2023/07/16 05:49:19;;;;;;;;;;;21.60;99.90;;;;;;5036644;28;20015;-85
2023/07/16 05:51:45;;;;;;;;;;;21.70;99.90;;;;;;5052530;28;19971;-86
2023/07/16 05:54:10;;;;;;;;;;;21.80;99.90;;;;;;5042737;28;19924;-85
2023/07/16 05:56:36;;;;;;;;;;;21.80;99.90;;;;;;5052566;28;19931;-86
2023/07/16 05:59:01;;;;;;;;;;;21.90;99.90;;;;;;5055271;28;19925;-85
2023/07/16 06:01:27;;;;;;;;;;;22.00;99.90;;;;;;5051013;28;20409;-83
2023/07/16 06:03:53;;;;;;;;;;;22.10;99.90;;;;;;5052329;28;19935;-84
2023/07/16 06:06:19;;;;;;;;;;;22.20;99.90;;;;;;5039572;28;19933;-86
2023/07/16 06:08:45;;;;;;;;;;;22.30;99.90;;;;;;5026179;28;19936;-85
2023/07/16 06:11:11;;;;;;;;;;;22.50;99.90;;;;;;5035253;28;19925;-85
2023/07/16 06:13:36;;;;;;;;;;;22.60;99.90;;;;;;5056050;28;19925;-86
2023/07/16 06:16:02;;;;;;;;;;;22.60;99.90;;;;;;5035359;28;20329;-86
2023/07/16 06:18:28;;;;;;;;;;;22.60;99.90;;;;;;5029296;28;19925;-83
2023/07/16 06:20:55;;;;;;;;;;;22.80;99.90;;;;;;5052339;28;20011;-85
2023/07/16 06:23:20;;;;;;;;;;;22.90;99.90;;;;;;5054339;28;20019;-85
2023/07/16 06:25:49;;;;;;;;;;;23.00;99.90;;;;;;5059129;28;20489;-88
2023/07/16 06:28:15;;;;;;;;;;;23.10;99.90;;;;;;5042266;28;19925;-86
2023/07/16 06:30:41;;;;;;;;;;;23.00;99.90;;;;;;5046246;28;19944;-84
2023/07/16 06:33:06;;;;;;;;;;;23.10;99.90;;;;;;5064425;28;19931;-83
2023/07/16 06:35:32;;;;;;;;;;;23.30;99.90;;;;;;5037065;28;19933;-86
2023/07/16 06:37:58;;;;;;;;;;;23.40;99.90;;;;;;5041868;28;19925;-88
2023/07/16 06:40:24;;;;;;;;;;;23.50;99.90;;;;;;5049625;28;20384;-88
2023/07/16 06:42:49;;;;;;;;;;;23.50;99.90;;;;;;5051105;28;19925;-85
2023/07/16 06:45:15;;;;;;;;;;;23.50;99.90;;;;;;5051996;28;19925;-86
2023/07/16 06:47:40;;;;;;;;;;;23.50;99.90;;;;;;5035982;28;19929;-87
2023/07/16 06:50:06;;;;;;;;;;;23.60;99.90;;;;;;5016966;28;20383;-82
2023/07/16 06:52:32;;;;;;;;;;;23.60;99.90;;;;;;5045238;28;20776;-85
2023/07/16 06:54:59;;;;;;;;;;;23.40;99.90;;;;;;5045698;28;20102;-90
2023/07/16 06:57:24;;;;;;;;;;;23.30;99.90;;;;;;5022642;28;19952;-86
2023/07/16 06:59:50;;;;;;;;;;;23.30;99.90;;;;;;5047499;28;19929;-84
2023/07/16 07:02:16;;;;;;;;;;;23.40;99.90;;;;;;5054961;28;19931;-88
2023/07/16 07:04:42;;;;;;;;;;;23.50;99.90;;;;;;5023044;28;19928;-86
2023/07/16 07:07:08;;;;;;;;;;;23.80;99.90;;;;;;5049727;28;19984;-87
2023/07/16 07:09:33;;;;;;;;;;;24.00;99.90;;;;;;5053380;28;19972;-85
2023/07/16 07:11:59;;;;;;;;;;;24.20;99.90;;;;;;5051282;28;19972;-85
2023/07/16 07:14:25;;;;;;;;;;;24.20;99.90;;;;;;5036786;28;19979;-84
2023/07/16 07:16:50;;;;;;;;;;;24.30;98.50;;;;;;5056693;28;19924;-86
2023/07/16 07:19:16;;;;;;;;;;;24.30;99.90;;;;;;5049386;28;19988;-89
2023/07/16 07:21:42;;;;;;;;;;;24.20;99.90;;;;;;5033222;28;19951;-87
2023/07/16 07:24:08;;;;;;;;;;;24.20;98.50;;;;;;5051336;28;20389;-87
2023/07/16 07:26:34;;;;;;;;;;;24.20;99.60;;;;;;5054588;28;19924;-84
2023/07/16 07:29:05;;;;;;;;;;;24.20;99.90;;;;;;5049718;28;20545;-86
2023/07/16 07:31:31;;;;;;;;;;;24.30;98.20;;;;;;5032372;28;19968;-90
2023/07/16 07:33:59;;;;;;;;;;;24.20;98.90;;;;;;5017901;28;19995;-85
2023/07/16 07:36:25;;;;;;;;;;;24.10;98.90;;;;;;5036815;28;20374;-86
2023/07/16 07:38:51;;;;;;;;;;;24.20;99.80;;;;;;5037699;28;19928;-86
2023/07/16 07:41:16;;;;;;;;;;;24.30;98.20;;;;;;5040672;28;19928;-87
2023/07/16 07:43:42;;;;;;;;;;;24.40;99.90;;;;;;5055917;28;20366;-86
2023/07/16 07:46:08;;;;;;;;;;;24.40;99.80;;;;;;5037537;28;19928;-87
2023/07/16 07:48:34;;;;;;;;;;;24.50;97.40;;;;;;5054589;28;20431;-84
2023/07/16 07:51:00;;;;;;;;;;;24.60;98.90;;;;;;5058083;28;20016;-88
2023/07/16 07:53:25;;;;;;;;;;;24.80;98.70;;;;;;5056276;28;19936;-87
2023/07/16 07:55:51;;;;;;;;;;;24.90;97.60;;;;;;5054460;28;20310;-85
2023/07/16 07:58:16;;;;;;;;;;;24.60;96.60;;;;;;5055841;28;19932;-86
2023/07/16 08:00:42;;;;;;;;;;;24.40;97.10;;;;;;5042822;28;19929;-85
2023/07/16 08:03:07;;;;;;;;;;;24.30;98.00;;;;;;5056875;28;19960;-83
2023/07/16 08:05:33;;;;;;;;;;;24.60;98.00;;;;;;5053217;28;20019;-83
2023/07/16 08:08:01;;;;;;;;;;;24.60;97.70;;;;;;5059179;28;20432;-86
2023/07/16 08:10:27;;;;;;;;;;;24.30;96.30;;;;;;5055347;28;19925;-82
2023/07/16 08:12:52;;;;;;;;;;;24.00;98.10;;;;;;5023143;28;20351;-83
2023/07/16 08:15:18;;;;;;;;;;;23.60;98.10;;;;;;5061183;28;19943;-85
2023/07/16 08:17:44;;;;;;;;;;;23.40;98.60;;;;;;5056970;28;19940;-87
2023/07/16 08:20:10;;;;;;;;;;;23.20;99.60;;;;;;5060047;28;19928;-88
2023/07/16 08:22:36;;;;;;;;;;;22.80;99.90;;;;;;5025910;28;19924;-83
2023/07/16 08:25:03;;;;;;;;;;;22.50;99.10;;;;;;5062026;28;19936;-83
2023/07/16 08:27:34;;;;;;;;;;;22.20;99.30;;;;;;5042618;28;20039;-82
2023/07/16 08:30:00;;;;;;;;;;;21.90;99.90;;;;;;5056679;28;20059;-83
2023/07/16 08:32:25;;;;;;;;;;;21.80;99.90;;;;;;5040529;28;20444;-84
2023/07/16 08:34:51;;;;;;;;;;;21.70;99.90;;;;;;5054505;28;19925;-83
2023/07/16 08:37:17;;;;;;;;;;;21.60;99.90;;;;;;5052038;28;19921;-84
2023/07/16 08:39:42;;;;;;;;;;;21.50;99.90;;;;;;5064097;28;20303;-85
2023/07/16 08:42:09;;;;;;;;;;;21.30;99.90;;;;;;5037805;28;19921;-86
2023/07/16 08:44:36;;;;;;;;;;;21.10;99.90;;;;;;5069280;28;19925;-83
2023/07/16 08:47:01;;;;;;;;;;;21.10;99.90;;;;;;5059535;28;19921;-82
2023/07/16 08:49:29;;;;;;;;;;;21.10;99.90;;;;;;5062168;28;19924;-83
2023/07/16 08:51:55;;;;;;;;;;;21.20;99.90;;;;;;5061791;28;19950;-85
2023/07/16 08:54:22;;;;;;;;;;;21.40;99.90;;;;;;5070353;28;19920;-84
2023/07/16 08:56:48;;;;;;;;;;;21.50;99.90;;;;;;5059779;28;19920;-86
2023/07/16 08:59:15;;;;;;;;;;;21.50;99.90;;;;;;5063646;28;19920;-85
2023/07/16 09:01:41;;;;;;;;;;;21.50;99.90;;;;;;5063005;28;19987;-85
2023/07/16 09:04:06;;;;;;;;;;;21.80;99.90;;;;;;5043988;28;19921;-84
2023/07/16 09:06:33;;;;;;;;;;;22.20;99.90;;;;;;5041489;28;19921;-84
2023/07/16 09:08:59;;;;;;;;;;;22.40;99.90;;;;;;5066479;28;19928;-85
2023/07/16 09:11:24;;;;;;;;;;;22.50;99.90;;;;;;5065079;28;19925;-86
2023/07/16 09:13:50;;;;;;;;;;;22.60;99.90;;;;;;5064149;28;19960;-85
2023/07/16 09:16:18;;;;;;;;;;;22.80;99.90;;;;;;5070779;28;20036;-85
2023/07/16 09:18:45;;;;;;;;;;;22.90;99.90;;;;;;5043641;28;19921;-87
2023/07/16 09:21:10;;;;;;;;;;;22.90;99.90;;;;;;5063753;28;19947;-86
2023/07/16 09:23:36;;;;;;;;;;;22.60;99.90;;;;;;5061938;28;20418;-86
2023/07/16 09:26:03;;;;;;;;;;;22.30;99.90;;;;;;5038649;28;19932;-85
2023/07/16 09:28:33;;;;;;;;;;;22.00;99.90;;;;;;5062349;28;19930;-89
2023/07/16 09:31:06;;;;;;;;;;;21.70;99.90;;;;;;5059656;28;20398;-84
2023/07/16 09:33:31;;;;;;;;;;;21.50;99.90;;;;;;5058270;28;19935;-85
2023/07/16 09:36:03;;;;;;;;;;;21.40;99.90;;;;;;5039639;28;20024;-83
2023/07/16 09:38:32;;;;;;;;;;;21.30;99.90;;;;;;5055356;28;19936;-86
2023/07/16 09:40:58;;;;;;;;;;;21.20;99.90;;;;;;5056531;28;19927;-82
2023/07/16 09:43:24;;;;;;;;;;;21.20;99.90;;;;;;5059065;28;19921;-83
2023/07/16 09:45:53;;;;;;;;;;;21.10;99.90;;;;;;5057810;28;19920;-82
2023/07/16 09:48:19;;;;;;;;;;;21.40;99.90;;;;;;5041902;28;20077;-85
2023/07/16 09:50:52;;;;;;;;;;;21.80;99.90;;;;;;5053081;28;20030;-84
2023/07/16 09:53:18;;;;;;;;;;;22.20;99.90;;;;;;5056316;28;19944;-81
2023/07/16 09:55:44;;;;;;;;;;;22.50;99.90;;;;;;5061898;28;19929;-86
2023/07/16 09:58:11;;;;;;;;;;;22.60;99.90;;;;;;5056872;28;20175;-84
2023/07/16 10:00:38;;;;;;;;;;;22.50;99.90;;;;;;5055316;28;19921;-81
2023/07/16 10:03:06;;;;;;;;;;;22.30;99.90;;;;;;5055804;28;19920;-84
2023/07/16 10:05:36;;;;;;;;;;;22.10;99.90;;;;;;5041991;28;19932;-87
2023/07/16 10:08:02;;;;;;;;;;;22.00;99.90;;;;;;5035398;28;19933;-85
2023/07/16 10:10:42;;;;;;;;;;;22.10;99.90;;;;;;5063741;28;19924;-91
2023/07/16 10:13:12;;;;;;;;;;;22.00;99.90;;;;;;5023531;28;20007;-83
2023/07/16 10:15:38;;;;;;;;;;;21.90;99.90;;;;;;5055267;28;19974;-84
2023/07/16 10:18:04;;;;;;;;;;;21.80;99.90;;;;;;5048693;28;19955;-86
2023/07/16 10:20:31;;;;;;;;;;;21.70;99.90;;;;;;5058525;28;20329;-85
2023/07/16 10:22:56;;;;;;;;;;;21.40;99.90;;;;;;5051482;28;20306;-89
2023/07/16 10:25:40;;;;;;;;;;;21.20;99.90;;;;;;5050559;28;20007;-86
2023/07/16 10:28:06;;;;;;;;;;;20.90;99.90;;;;;;5055484;28;19935;-83
2023/07/16 10:30:33;;;;;;;;;;;20.80;99.90;;;;;;5051524;28;19933;-87
2023/07/16 10:33:02;;;;;;;;;;;20.70;99.90;;;;;;5049174;28;19991;-86
2023/07/16 10:35:30;;;;;;;;;;;20.70;99.90;;;;;;5053931;28;19968;-88
2023/07/16 10:37:56;;;;;;;;;;;20.60;99.90;;;;;;5037287;28;19975;-86
2023/07/16 10:40:21;;;;;;;;;;;20.70;99.90;;;;;;5049328;28;19932;-88
2023/07/16 10:42:47;;;;;;;;;;;20.80;99.90;;;;;;5052660;28;19924;-87
2023/07/16 10:45:13;;;;;;;;;;;20.90;99.90;;;;;;5052626;28;19974;-86
2023/07/16 10:47:39;;;;;;;;;;;21.10;99.90;;;;;;5036331;28;19924;-91
2023/07/16 10:50:11;;;;;;;;;;;21.30;99.90;;;;;;5048980;28;20954;-89
2023/07/16 10:52:38;;;;;;;;;;;21.40;99.90;;;;;;5032224;28;20012;-87
2023/07/16 10:55:04;;;;;;;;;;;21.60;99.90;;;;;;5028617;28;19925;-86
2023/07/16 10:57:30;;;;;;;;;;;21.90;99.90;;;;;;5051510;28;19948;-86
2023/07/16 10:59:58;;;;;;;;;;;22.30;99.90;;;;;;5043363;28;19936;-86
2023/07/16 11:02:24;;;;;;;;;;;22.60;99.90;;;;;;5048644;28;19931;-87
2023/07/16 11:04:54;;;;;;;;;;;22.50;99.90;;;;;;5051584;28;19924;-86
2023/07/16 11:07:20;;;;;;;;;;;22.50;99.90;;;;;;5034413;28;19936;-87
2023/07/16 11:09:51;;;;;;;;;;;22.40;99.90;;;;;;5048616;28;19933;-87
2023/07/16 11:12:23;;;;;;;;;;;22.30;99.90;;;;;;5047450;28;19924;-87
2023/07/16 11:14:50;;;;;;;;;;;22.50;99.90;;;;;;5051536;28;19932;-87
2023/07/16 11:17:15;;;;;;;;;;;22.90;99.90;;;;;;5048382;28;20402;-83
2023/07/16 11:19:44;;;;;;;;;;;23.10;99.90;;;;;;5051975;28;19924;-89
2023/07/16 11:22:10;;;;;;;;;;;23.40;99.90;;;;;;5015825;28;20027;-89
2023/07/16 11:24:40;;;;;;;;;;;23.40;99.90;;;;;;5021110;28;19939;-89
2023/07/16 11:27:14;;;;;;;;;;;23.30;99.90;;;;;;5038232;28;19924;-86
2023/07/16 11:29:41;;;;;;;;;;;23.20;99.90;;;;;;5037289;28;19967;-86
2023/07/16 11:32:10;;;;;;;;;;;22.80;99.90;;;;;;5056900;28;19935;-89
2023/07/16 11:34:36;;;;;;;;;;;22.50;99.90;;;;;;5044041;28;19925;-89
2023/07/16 11:37:08;;;;;;;;;;;22.20;99.90;;;;;;5035992;28;19929;-87
2023/07/16 11:39:34;;;;;;;;;;;22.10;99.90;;;;;;5042032;28;19943;-88
2023/07/16 11:42:01;;;;;;;;;;;21.90;99.90;;;;;;5058291;28;19929;-83
2023/07/16 11:44:32;;;;;;;;;;;21.80;99.90;;;;;;5038702;28;19925;-85
2023/07/16 11:46:58;;;;;;;;;;;21.70;99.90;;;;;;5037133;28;20028;-88
2023/07/16 11:49:27;;;;;;;;;;;21.70;99.90;;;;;;5056139;28;20009;-88
2023/07/16 11:51:52;;;;;;;;;;;21.90;99.90;;;;;;5024161;28;19972;-88
2023/07/16 11:54:18;;;;;;;;;;;22.20;99.90;;;;;;5035258;28;20001;-84
2023/07/16 11:56:43;;;;;;;;;;;22.30;99.90;;;;;;5034437;28;19925;-84
2023/07/16 11:59:09;;;;;;;;;;;22.30;99.90;;;;;;5057987;28;20382;-85
2023/07/16 12:01:34;;;;;;;;;;;22.30;99.90;;;;;;5044738;28;20280;-84
2023/07/16 12:04:00;;;;;;;;;;;22.50;99.90;;;;;;5056197;28;20015;-85
2023/07/16 12:06:26;;;;;;;;;;;22.80;99.90;;;;;;5060579;28;19932;-85
2023/07/16 12:08:51;;;;;;;;;;;22.90;99.90;;;;;;5047635;28;20684;-88
2023/07/16 12:11:17;;;;;;;;;;;23.00;99.90;;;;;;5041263;28;19924;-86
2023/07/16 12:13:42;;;;;;;;;;;22.90;99.90;;;;;;5046117;28;20306;-86
2023/07/16 12:16:08;;;;;;;;;;;22.80;99.90;;;;;;5048143;28;19936;-87
2023/07/16 12:18:33;;;;;;;;;;;22.50;99.90;;;;;;5037547;28;20284;-87
2023/07/16 12:20:59;;;;;;;;;;;22.20;99.90;;;;;;5062189;28;19932;-84
2023/07/16 12:23:25;;;;;;;;;;;21.90;99.90;;;;;;5056305;28;20430;-87
2023/07/16 12:25:51;;;;;;;;;;;21.80;99.90;;;;;;5030763;28;19959;-85
2023/07/16 12:28:17;;;;;;;;;;;21.80;99.90;;;;;;5028207;28;20220;-89
2023/07/16 12:30:42;;;;;;;;;;;22.20;99.90;;;;;;5058570;28;20015;-83
2023/07/16 12:33:09;;;;;;;;;;;22.70;99.90;;;;;;5048271;28;19947;-86
2023/07/16 12:35:36;;;;;;;;;;;23.10;99.90;;;;;;5028059;28;20133;-86
2023/07/16 12:38:02;;;;;;;;;;;23.30;99.90;;;;;;5044893;28;20031;-87
2023/07/16 12:40:29;;;;;;;;;;;23.30;99.90;;;;;;5028294;28;19955;-87
2023/07/16 12:42:55;;;;;;;;;;;23.20;99.90;;;;;;5050720;28;19932;-88
2023/07/16 12:45:20;;;;;;;;;;;23.30;99.90;;;;;;5022183;28;20352;-84
2023/07/16 12:47:48;;;;;;;;;;;23.40;99.90;;;;;;5061645;28;19928;-86
2023/07/16 12:50:15;;;;;;;;;;;23.60;99.90;;;;;;5006620;28;20383;-87
2023/07/16 12:52:42;;;;;;;;;;;23.90;99.90;;;;;;5049153;28;19929;-85
2023/07/16 12:55:08;;;;;;;;;;;24.30;99.90;;;;;;5040672;28;19964;-87
2023/07/16 12:57:33;;;;;;;;;;;24.60;99.90;;;;;;5021903;28;19978;-86
2023/07/16 12:59:59;;;;;;;;;;;24.80;99.10;;;;;;5055046;28;19925;-88
2023/07/16 13:02:24;;;;;;;;;;;24.80;99.90;;;;;;5041928;28;19928;-88
2023/07/16 13:04:56;;;;;;;;;;;24.60;98.70;;;;;;5042645;28;19935;-86
2023/07/16 13:07:21;;;;;;;;;;;24.30;98.70;;;;;;5063702;28;19929;-86
2023/07/16 13:09:47;;;;;;;;;;;24.00;99.90;;;;;;5071392;28;19924;-87
2023/07/16 13:12:12;;;;;;;;;;;23.90;99.90;;;;;;5041783;28;19925;-85
2023/07/16 13:14:38;;;;;;;;;;;23.80;99.90;;;;;;5039620;28;20127;-87
2023/07/16 13:17:05;;;;;;;;;;;23.70;99.90;;;;;;5054761;28;20438;-85
2023/07/16 13:19:31;;;;;;;;;;;23.60;99.90;;;;;;5042485;28;20137;-88
2023/07/16 13:21:57;;;;;;;;;;;23.60;99.90;;;;;;5061770;28;19925;-87
2023/07/16 13:24:22;;;;;;;;;;;23.60;99.90;;;;;;5065651;28;19932;-85
2023/07/16 13:26:54;;;;;;;;;;;23.70;99.90;;;;;;5038605;28;20038;-89
2023/07/16 13:29:20;;;;;;;;;;;23.80;99.90;;;;;;5022891;28;19924;-85
2023/07/16 13:31:45;;;;;;;;;;;24.00;99.90;;;;;;5056300;28;19929;-89
2023/07/16 13:34:11;;;;;;;;;;;24.30;99.90;;;;;;5060685;28;19925;-86
2023/07/16 13:36:36;;;;;;;;;;;24.40;99.20;;;;;;5041471;28;20007;-87
2023/07/16 13:39:04;;;;;;;;;;;24.50;99.60;;;;;;5046840;28;20501;-87
2023/07/16 13:41:30;;;;;;;;;;;24.50;99.70;;;;;;5056955;28;19936;-89
2023/07/16 13:43:56;;;;;;;;;;;24.50;99.40;;;;;;5058413;28;20371;-86
2023/07/16 13:46:21;;;;;;;;;;;24.50;99.90;;;;;;5055144;28;19928;-86
2023/07/16 13:48:47;;;;;;;;;;;24.70;99.90;;;;;;5056761;28;19979;-86
2023/07/16 13:51:19;;;;;;;;;;;24.80;99.30;;;;;;5056078;28;20472;-88
2023/07/16 13:53:44;;;;;;;;;;;24.90;98.40;;;;;;5054313;28;20326;-84
2023/07/16 13:56:11;;;;;;;;;;;24.70;98.60;;;;;;5055829;28;19929;-85
2023/07/16 13:58:37;;;;;;;;;;;24.50;98.50;;;;;;5023311;28;19924;-86
2023/07/16 14:01:03;;;;;;;;;;;24.30;97.60;;;;;;5060064;28;19988;-86
2023/07/16 14:03:28;;;;;;;;;;;24.10;97.60;;;;;;5050136;28;20444;-86
2023/07/16 14:05:54;;;;;;;;;;;24.00;98.30;;;;;;5040532;28;19925;-88
2023/07/16 14:08:20;;;;;;;;;;;23.70;97.70;;;;;;5046211;28;19925;-88
2023/07/16 14:10:45;;;;;;;;;;;23.50;98.10;;;;;;5038280;28;19929;-87